Terminal Aerodrome Forecast
Issued by NWS

Home | Current Version | Previous Version | Graphics & Text | Print | Product List | Glossary On
Versions: 1 2 3 4 5 6 7 8 9 10 11 12 13 14 15 16 17 18 19 20 21 22 23 24 25 26 27 28 29 30 31 32 33 34
871
FTUS43 KGRB 231731
TAFATW
TAF
KATW 231731Z 2318/2418 32008G14KT P6SM BKN090
     FM232100 34008G14KT P6SM VCTS BKN090CB
     FM232300 02007KT P6SM SCT080
     FM240700 01007KT P6SM BKN027
     FM240900 02007KT P6SM BKN018
     FM241500 04008KT P6SM SCT040 BKN090=

USA.gov is the U.S. government's official web portal to all federal, state and local government web resources and services.